Morning Lady — 3FKC3 — position and weather

sailwx.info

Track history (hours):
 
Tides and Currents Weather Stations Pressure Air Temp Water Temp Dewpoint Dewpoint Depression Visibility Wind Speed Wind Dir Waves Ship Positions

Morning Lady

Last reported at 2015-May-15 06:20 UTC. Time now 2015-May-24 07:21 UTC.
Position N 01°10' E 103°48'.
Warning: this ship's position is 9 days out of date.

Length 234 m; draft 9.3 m.

Type: Ship. MMSI: 356473000.

Date/timePositionNaut miles runAvg speedWind from/ knotsBaromVisibWave heightAir tempDewpointWater temp
2015-May-15 06:20N 01°10' E 103°48'1316.8
2015-May-15 05:32N 01°15' E 104°00'  
2015-May-11 08:26N 21°52' E 118°59'1416.1
2015-May-11 07:33N 22°04' E 119°07'1615.9
2015-May-11 06:34N 22°18' E 119°16'1515.4
2015-May-11 05:34N 22°30' E 119°25'1514.5
2015-May-11 04:33N 22°43' E 119°32'1414.2
2015-May-11 03:33N 22°56' E 119°40'  
2015-May-05 16:16N 34°01' E 127°54'1317.6
2015-May-05 15:33N 33°50' E 127°46'  
Track history (hours):
 
Tides and Currents Weather Stations Pressure Air Temp Water Temp Dewpoint Dewpoint Depression Visibility Wind Speed Wind Dir Waves Ship Positions

Morning Lady

Last reported at 2015-May-15 06:20 UTC. Time now 2015-May-24 07:21 UTC.
Position N 01°10' E 103°48'.
Warning: this ship's position is 9 days out of date.

Length 234 m; draft 9.3 m.

Type: Ship. MMSI: 356473000.

Date/timePositionNaut miles runAvg speedWind from/ knotsBaromVisibWave heightAir tempDewpointWater temp
2015-May-15 06:20N 01°10' E 103°48'1316.8
2015-May-15 05:32N 01°15' E 104°00'  
2015-May-11 08:26N 21°52' E 118°59'1416.1
2015-May-11 07:33N 22°04' E 119°07'1615.9
2015-May-11 06:34N 22°18' E 119°16'1515.4
2015-May-11 05:34N 22°30' E 119°25'1514.5
2015-May-11 04:33N 22°43' E 119°32'1414.2
2015-May-11 03:33N 22°56' E 119°40'  
2015-May-05 16:16N 34°01' E 127°54'1317.6
2015-May-05 15:33N 33°50' E 127°46'  

Dump ship's entire track history